sensor_id;sensor_type;location;lat;lon;timestamp;P1;durP1;ratioP1;P2;durP2;ratioP2
19024;SDS011;9645;51.448;6.260;2023-02-22T00:01:16;67.22;;;22.58;;
19024;SDS011;9645;51.448;6.260;2023-02-22T00:04:00;65.75;;;20.35;;
19024;SDS011;9645;51.448;6.260;2023-02-22T00:06:27;62.67;;;21.48;;
19024;SDS011;9645;51.448;6.260;2023-02-22T00:08:56;66.93;;;20.70;;
19024;SDS011;9645;51.448;6.260;2023-02-22T00:11:23;85.40;;;23.40;;
19024;SDS011;9645;51.448;6.260;2023-02-22T00:13:51;74.15;;;21.20;;
19024;SDS011;9645;51.448;6.260;2023-02-22T00:16:21;72.15;;;22.67;;
19024;SDS011;9645;51.448;6.260;2023-02-22T00:18:49;68.20;;;23.00;;
19024;SDS011;9645;51.448;6.260;2023-02-22T00:21:18;78.88;;;25.00;;
19024;SDS011;9645;51.448;6.260;2023-02-22T00:23:46;72.22;;;22.80;;
19024;SDS011;9645;51.448;6.260;2023-02-22T00:26:15;79.20;;;22.00;;
19024;SDS011;9645;51.448;6.260;2023-02-22T00:28:44;71.10;;;22.83;;
19024;SDS011;9645;51.448;6.260;2023-02-22T00:31:12;69.53;;;22.00;;
19024;SDS011;9645;51.448;6.260;2023-02-22T00:33:39;71.72;;;22.20;;
19024;SDS011;9645;51.448;6.260;2023-02-22T00:36:07;65.30;;;21.42;;
19024;SDS011;9645;51.448;6.260;2023-02-22T00:38:37;78.82;;;21.42;;
19024;SDS011;9645;51.448;6.260;2023-02-22T00:41:04;74.82;;;21.60;;
19024;SDS011;9645;51.448;6.260;2023-02-22T00:43:32;69.90;;;21.25;;
19024;SDS011;9645;51.448;6.260;2023-02-22T00:45:59;115.03;;;23.73;;
19024;SDS011;9645;51.448;6.260;2023-02-22T00:48:27;71.85;;;23.30;;
19024;SDS011;9645;51.448;6.260;2023-02-22T00:50:54;84.10;;;22.83;;
19024;SDS011;9645;51.448;6.260;2023-02-22T00:53:21;84.53;;;23.33;;
19024;SDS011;9645;51.448;6.260;2023-02-22T00:55:51;81.43;;;22.25;;
19024;SDS011;9645;51.448;6.260;2023-02-22T00:58:19;75.00;;;21.95;;
19024;SDS011;9645;51.448;6.260;2023-02-22T01:00:47;88.03;;;21.80;;
19024;SDS011;9645;51.448;6.260;2023-02-22T01:03:15;95.63;;;22.75;;
19024;SDS011;9645;51.448;6.260;2023-02-22T01:05:43;76.50;;;22.27;;
19024;SDS011;9645;51.448;6.260;2023-02-22T01:08:11;82.25;;;23.73;;
19024;SDS011;9645;51.448;6.260;2023-02-22T01:10:39;112.53;;;24.95;;
19024;SDS011;9645;51.448;6.260;2023-02-22T01:13:08;89.65;;;23.70;;
19024;SDS011;9645;51.448;6.260;2023-02-22T01:15:37;107.70;;;26.50;;
19024;SDS011;9645;51.448;6.260;2023-02-22T01:18:06;93.72;;;24.35;;
19024;SDS011;9645;51.448;6.260;2023-02-22T01:20:33;94.57;;;24.40;;
19024;SDS011;9645;51.448;6.260;2023-02-22T01:23:01;89.70;;;25.08;;
19024;SDS011;9645;51.448;6.260;2023-02-22T01:25:30;94.05;;;24.65;;
19024;SDS011;9645;51.448;6.260;2023-02-22T01:27:58;98.97;;;25.42;;
19024;SDS011;9645;51.448;6.260;2023-02-22T01:30:28;105.25;;;26.50;;
19024;SDS011;9645;51.448;6.260;2023-02-22T01:32:58;98.75;;;26.38;;
19024;SDS011;9645;51.448;6.260;2023-02-22T01:35:26;116.32;;;23.15;;
19024;SDS011;9645;51.448;6.260;2023-02-22T01:37:55;141.05;;;25.02;;
19024;SDS011;9645;51.448;6.260;2023-02-22T01:40:24;95.85;;;25.95;;
19024;SDS011;9645;51.448;6.260;2023-02-22T01:42:54;96.53;;;24.00;;
19024;SDS011;9645;51.448;6.260;2023-02-22T01:48:29;94.43;;;25.98;;
19024;SDS011;9645;51.448;6.260;2023-02-22T01:51:01;105.25;;;26.33;;
19024;SDS011;9645;51.448;6.260;2023-02-22T01:53:36;99.88;;;25.23;;
19024;SDS011;9645;51.448;6.260;2023-02-22T01:56:06;127.50;;;25.48;;
19024;SDS011;9645;51.448;6.260;2023-02-22T01:58:34;146.40;;;26.42;;
19024;SDS011;9645;51.448;6.260;2023-02-22T02:01:05;134.13;;;25.35;;
19024;SDS011;9645;51.448;6.260;2023-02-22T02:03:34;86.95;;;24.88;;
19024;SDS011;9645;51.448;6.260;2023-02-22T02:06:04;143.30;;;26.25;;
19024;SDS011;9645;51.448;6.260;2023-02-22T02:08:38;109.53;;;25.77;;
19024;SDS011;9645;51.448;6.260;2023-02-22T02:11:14;158.95;;;28.00;;
19024;SDS011;9645;51.448;6.260;2023-02-22T02:13:43;101.25;;;25.83;;
19024;SDS011;9645;51.448;6.260;2023-02-22T02:16:12;121.60;;;25.98;;
19024;SDS011;9645;51.448;6.260;2023-02-22T02:18:39;107.40;;;25.27;;
19024;SDS011;9645;51.448;6.260;2023-02-22T02:27:09;129.00;;;28.15;;
19024;SDS011;9645;51.448;6.260;2023-02-22T02:32:52;107.72;;;24.23;;
19024;SDS011;9645;51.448;6.260;2023-02-22T02:35:27;105.78;;;26.85;;
19024;SDS011;9645;51.448;6.260;2023-02-22T02:38:01;98.22;;;24.85;;
19024;SDS011;9645;51.448;6.260;2023-02-22T02:40:33;116.35;;;25.00;;
19024;SDS011;9645;51.448;6.260;2023-02-22T02:43:06;99.72;;;24.98;;
19024;SDS011;9645;51.448;6.260;2023-02-22T02:45:42;82.90;;;23.17;;
19024;SDS011;9645;51.448;6.260;2023-02-22T02:48:14;210.98;;;25.55;;
19024;SDS011;9645;51.448;6.260;2023-02-22T02:50:46;127.20;;;23.95;;
19024;SDS011;9645;51.448;6.260;2023-02-22T02:53:16;174.35;;;27.17;;
19024;SDS011;9645;51.448;6.260;2023-02-22T02:55:46;123.22;;;24.35;;
19024;SDS011;9645;51.448;6.260;2023-02-22T02:58:18;132.80;;;24.58;;
19024;SDS011;9645;51.448;6.260;2023-02-22T03:00:46;86.93;;;25.23;;
19024;SDS011;9645;51.448;6.260;2023-02-22T03:03:24;155.55;;;24.92;;
19024;SDS011;9645;51.448;6.260;2023-02-22T03:06:08;129.10;;;24.85;;
19024;SDS011;9645;51.448;6.260;2023-02-22T03:08:44;153.20;;;23.90;;
19024;SDS011;9645;51.448;6.260;2023-02-22T03:11:17;119.13;;;21.15;;
19024;SDS011;9645;51.448;6.260;2023-02-22T03:13:49;119.07;;;21.63;;
19024;SDS011;9645;51.448;6.260;2023-02-22T03:16:25;86.10;;;21.00;;
19024;SDS011;9645;51.448;6.260;2023-02-22T03:19:00;119.93;;;21.42;;
19024;SDS011;9645;51.448;6.260;2023-02-22T03:21:32;227.30;;;23.55;;
19024;SDS011;9645;51.448;6.260;2023-02-22T03:24:05;89.45;;;21.00;;
19024;SDS011;9645;51.448;6.260;2023-02-22T03:26:35;166.00;;;22.17;;
19024;SDS011;9645;51.448;6.260;2023-02-22T03:29:07;154.07;;;22.50;;
19024;SDS011;9645;51.448;6.260;2023-02-22T03:31:39;239.93;;;22.88;;
19024;SDS011;9645;51.448;6.260;2023-02-22T03:34:12;184.02;;;24.00;;
19024;SDS011;9645;51.448;6.260;2023-02-22T03:36:43;171.32;;;21.80;;
19024;SDS011;9645;51.448;6.260;2023-02-22T03:39:14;137.23;;;22.80;;
19024;SDS011;9645;51.448;6.260;2023-02-22T03:41:44;103.30;;;22.33;;
19024;SDS011;9645;51.448;6.260;2023-02-22T03:44:17;78.72;;;20.25;;
19024;SDS011;9645;51.448;6.260;2023-02-22T03:46:48;129.05;;;23.00;;
19024;SDS011;9645;51.448;6.260;2023-02-22T03:49:22;144.63;;;20.88;;
19024;SDS011;9645;51.448;6.260;2023-02-22T03:51:55;132.10;;;20.70;;
19024;SDS011;9645;51.448;6.260;2023-02-22T03:54:22;98.97;;;19.48;;
19024;SDS011;9645;51.448;6.260;2023-02-22T03:56:51;114.20;;;19.52;;
19024;SDS011;9645;51.448;6.260;2023-02-22T03:59:21;128.48;;;20.73;;
19024;SDS011;9645;51.448;6.260;2023-02-22T04:01:50;70.28;;;18.17;;
19024;SDS011;9645;51.448;6.260;2023-02-22T04:04:17;58.80;;;17.80;;
19024;SDS011;9645;51.448;6.260;2023-02-22T04:06:46;89.15;;;19.92;;
19024;SDS011;9645;51.448;6.260;2023-02-22T04:09:13;80.50;;;20.42;;
19024;SDS011;9645;51.448;6.260;2023-02-22T04:11:41;70.28;;;18.08;;
19024;SDS011;9645;51.448;6.260;2023-02-22T04:14:08;93.57;;;20.90;;
19024;SDS011;9645;51.448;6.260;2023-02-22T04:16:35;106.40;;;20.63;;
19024;SDS011;9645;51.448;6.260;2023-02-22T04:19:02;96.50;;;19.90;;
19024;SDS011;9645;51.448;6.260;2023-02-22T04:21:30;104.10;;;20.15;;
19024;SDS011;9645;51.448;6.260;2023-02-22T04:23:59;74.60;;;22.70;;
19024;SDS011;9645;51.448;6.260;2023-02-22T04:26:26;84.80;;;20.65;;
19024;SDS011;9645;51.448;6.260;2023-02-22T04:28:53;103.20;;;20.65;;
19024;SDS011;9645;51.448;6.260;2023-02-22T04:31:20;79.13;;;18.23;;
19024;SDS011;9645;51.448;6.260;2023-02-22T04:33:47;74.38;;;19.00;;
19024;SDS011;9645;51.448;6.260;2023-02-22T04:36:14;115.78;;;20.67;;
19024;SDS011;9645;51.448;6.260;2023-02-22T04:38:42;78.25;;;19.35;;
19024;SDS011;9645;51.448;6.260;2023-02-22T04:41:11;64.05;;;16.58;;
19024;SDS011;9645;51.448;6.260;2023-02-22T04:43:38;65.35;;;18.50;;
19024;SDS011;9645;51.448;6.260;2023-02-22T04:46:05;79.80;;;19.88;;
19024;SDS011;9645;51.448;6.260;2023-02-22T04:48:32;70.28;;;19.10;;
19024;SDS011;9645;51.448;6.260;2023-02-22T04:50:59;60.75;;;17.80;;
19024;SDS011;9645;51.448;6.260;2023-02-22T04:53:26;63.85;;;17.60;;
19024;SDS011;9645;51.448;6.260;2023-02-22T04:55:54;69.60;;;18.70;;
19024;SDS011;9645;51.448;6.260;2023-02-22T04:58:22;57.58;;;17.08;;
19024;SDS011;9645;51.448;6.260;2023-02-22T05:00:49;78.35;;;17.50;;
19024;SDS011;9645;51.448;6.260;2023-02-22T05:03:17;58.40;;;15.95;;
19024;SDS011;9645;51.448;6.260;2023-02-22T05:05:44;67.55;;;17.40;;
19024;SDS011;9645;51.448;6.260;2023-02-22T05:08:11;69.25;;;19.08;;
19024;SDS011;9645;51.448;6.260;2023-02-22T05:10:38;69.57;;;18.92;;
19024;SDS011;9645;51.448;6.260;2023-02-22T05:13:05;59.10;;;15.73;;
19024;SDS011;9645;51.448;6.260;2023-02-22T05:15:34;72.93;;;16.88;;
19024;SDS011;9645;51.448;6.260;2023-02-22T05:18:01;68.32;;;18.38;;
19024;SDS011;9645;51.448;6.260;2023-02-22T05:20:29;65.15;;;18.27;;
19024;SDS011;9645;51.448;6.260;2023-02-22T05:22:59;56.95;;;15.45;;
19024;SDS011;9645;51.448;6.260;2023-02-22T05:25:27;65.68;;;15.10;;
19024;SDS011;9645;51.448;6.260;2023-02-22T05:27:55;82.18;;;17.15;;
19024;SDS011;9645;51.448;6.260;2023-02-22T05:30:25;58.53;;;16.63;;
19024;SDS011;9645;51.448;6.260;2023-02-22T05:32:57;53.40;;;16.30;;
19024;SDS011;9645;51.448;6.260;2023-02-22T05:35:25;73.97;;;15.75;;
19024;SDS011;9645;51.448;6.260;2023-02-22T05:37:53;65.05;;;17.67;;
19024;SDS011;9645;51.448;6.260;2023-02-22T05:40:22;54.20;;;15.93;;
19024;SDS011;9645;51.448;6.260;2023-02-22T05:42:50;70.38;;;16.40;;
19024;SDS011;9645;51.448;6.260;2023-02-22T05:45:20;70.63;;;18.02;;
19024;SDS011;9645;51.448;6.260;2023-02-22T05:47:50;56.35;;;16.58;;
19024;SDS011;9645;51.448;6.260;2023-02-22T05:50:20;70.65;;;16.73;;
19024;SDS011;9645;51.448;6.260;2023-02-22T05:52:48;56.55;;;16.42;;
19024;SDS011;9645;51.448;6.260;2023-02-22T05:55:19;65.18;;;16.45;;
19024;SDS011;9645;51.448;6.260;2023-02-22T05:57:47;72.35;;;18.05;;
19024;SDS011;9645;51.448;6.260;2023-02-22T06:00:16;72.97;;;17.25;;
19024;SDS011;9645;51.448;6.260;2023-02-22T06:02:51;62.78;;;16.25;;
19024;SDS011;9645;51.448;6.260;2023-02-22T06:05:20;68.75;;;19.65;;
19024;SDS011;9645;51.448;6.260;2023-02-22T06:07:48;62.08;;;16.73;;
19024;SDS011;9645;51.448;6.260;2023-02-22T06:10:15;74.10;;;16.65;;
19024;SDS011;9645;51.448;6.260;2023-02-22T06:12:42;66.70;;;17.15;;
19024;SDS011;9645;51.448;6.260;2023-02-22T06:15:09;66.20;;;16.85;;
19024;SDS011;9645;51.448;6.260;2023-02-22T06:17:36;57.35;;;16.50;;
19024;SDS011;9645;51.448;6.260;2023-02-22T06:20:06;62.85;;;16.75;;
19024;SDS011;9645;51.448;6.260;2023-02-22T06:22:35;64.60;;;16.55;;
19024;SDS011;9645;51.448;6.260;2023-02-22T06:25:02;45.53;;;15.25;;
19024;SDS011;9645;51.448;6.260;2023-02-22T06:27:29;62.22;;;19.65;;
19024;SDS011;9645;51.448;6.260;2023-02-22T06:29:57;77.22;;;17.00;;
19024;SDS011;9645;51.448;6.260;2023-02-22T06:32:25;70.00;;;16.90;;
19024;SDS011;9645;51.448;6.260;2023-02-22T06:34:52;58.05;;;16.58;;
19024;SDS011;9645;51.448;6.260;2023-02-22T06:37:19;62.40;;;16.85;;
19024;SDS011;9645;51.448;6.260;2023-02-22T06:39:47;69.97;;;16.95;;
19024;SDS011;9645;51.448;6.260;2023-02-22T06:42:14;60.67;;;16.58;;
19024;SDS011;9645;51.448;6.260;2023-02-22T06:44:42;58.80;;;16.95;;
19024;SDS011;9645;51.448;6.260;2023-02-22T06:47:09;64.18;;;16.55;;
19024;SDS011;9645;51.448;6.260;2023-02-22T06:49:36;73.22;;;16.98;;
19024;SDS011;9645;51.448;6.260;2023-02-22T06:52:03;82.07;;;17.77;;
19024;SDS011;9645;51.448;6.260;2023-02-22T06:54:31;69.47;;;17.95;;
19024;SDS011;9645;51.448;6.260;2023-02-22T06:56:59;75.68;;;19.88;;
19024;SDS011;9645;51.448;6.260;2023-02-22T06:59:27;106.55;;;18.63;;
19024;SDS011;9645;51.448;6.260;2023-02-22T07:01:54;92.38;;;18.90;;
19024;SDS011;9645;51.448;6.260;2023-02-22T07:04:21;97.90;;;19.20;;
19024;SDS011;9645;51.448;6.260;2023-02-22T07:06:48;81.22;;;18.65;;
19024;SDS011;9645;51.448;6.260;2023-02-22T07:09:16;70.28;;;17.85;;
19024;SDS011;9645;51.448;6.260;2023-02-22T07:11:44;104.50;;;19.65;;
19024;SDS011;9645;51.448;6.260;2023-02-22T07:14:12;101.95;;;17.67;;
19024;SDS011;9645;51.448;6.260;2023-02-22T07:16:41;68.05;;;21.25;;
19024;SDS011;9645;51.448;6.260;2023-02-22T07:19:09;55.20;;;17.88;;
19024;SDS011;9645;51.448;6.260;2023-02-22T07:21:36;70.35;;;17.38;;
19024;SDS011;9645;51.448;6.260;2023-02-22T07:24:03;62.83;;;15.50;;
19024;SDS011;9645;51.448;6.260;2023-02-22T07:26:30;68.85;;;17.95;;
19024;SDS011;9645;51.448;6.260;2023-02-22T07:29:04;83.00;;;18.25;;
19024;SDS011;9645;51.448;6.260;2023-02-22T07:34:03;65.13;;;18.95;;
19024;SDS011;9645;51.448;6.260;2023-02-22T07:36:30;85.93;;;19.67;;
19024;SDS011;9645;51.448;6.260;2023-02-22T07:38:57;73.30;;;18.58;;
19024;SDS011;9645;51.448;6.260;2023-02-22T07:41:25;58.75;;;17.85;;
19024;SDS011;9645;51.448;6.260;2023-02-22T07:43:52;59.88;;;18.27;;
19024;SDS011;9645;51.448;6.260;2023-02-22T07:46:19;63.15;;;19.45;;
19024;SDS011;9645;51.448;6.260;2023-02-22T07:48:48;69.95;;;23.38;;
19024;SDS011;9645;51.448;6.260;2023-02-22T07:51:15;75.00;;;19.08;;
19024;SDS011;9645;51.448;6.260;2023-02-22T07:53:44;77.82;;;20.63;;
19024;SDS011;9645;51.448;6.260;2023-02-22T07:56:12;74.43;;;21.17;;
19024;SDS011;9645;51.448;6.260;2023-02-22T07:58:39;65.15;;;20.33;;
19024;SDS011;9645;51.448;6.260;2023-02-22T08:01:06;68.82;;;24.00;;
19024;SDS011;9645;51.448;6.260;2023-02-22T08:03:34;66.28;;;20.20;;
19024;SDS011;9645;51.448;6.260;2023-02-22T08:06:04;66.97;;;22.25;;
19024;SDS011;9645;51.448;6.260;2023-02-22T08:08:32;70.47;;;20.67;;
19024;SDS011;9645;51.448;6.260;2023-02-22T08:10:59;56.67;;;18.73;;
19024;SDS011;9645;51.448;6.260;2023-02-22T08:13:26;58.25;;;18.42;;
19024;SDS011;9645;51.448;6.260;2023-02-22T08:15:53;62.53;;;18.02;;
19024;SDS011;9645;51.448;6.260;2023-02-22T08:18:21;61.83;;;19.75;;
19024;SDS011;9645;51.448;6.260;2023-02-22T08:20:49;70.55;;;18.98;;
19024;SDS011;9645;51.448;6.260;2023-02-22T08:23:18;60.38;;;18.42;;
19024;SDS011;9645;51.448;6.260;2023-02-22T08:25:47;53.80;;;17.90;;
19024;SDS011;9645;51.448;6.260;2023-02-22T08:28:16;57.88;;;19.27;;
19024;SDS011;9645;51.448;6.260;2023-02-22T08:30:45;59.53;;;19.10;;
19024;SDS011;9645;51.448;6.260;2023-02-22T08:33:13;58.47;;;19.38;;
19024;SDS011;9645;51.448;6.260;2023-02-22T08:35:43;51.88;;;17.88;;
19024;SDS011;9645;51.448;6.260;2023-02-22T08:38:18;51.88;;;18.35;;
19024;SDS011;9645;51.448;6.260;2023-02-22T08:40:47;57.80;;;18.42;;
19024;SDS011;9645;51.448;6.260;2023-02-22T08:43:14;63.17;;;20.65;;
19024;SDS011;9645;51.448;6.260;2023-02-22T08:45:42;53.67;;;17.63;;
19024;SDS011;9645;51.448;6.260;2023-02-22T08:48:10;47.85;;;17.83;;
19024;SDS011;9645;51.448;6.260;2023-02-22T08:50:38;55.78;;;18.50;;
19024;SDS011;9645;51.448;6.260;2023-02-22T08:53:07;52.55;;;18.23;;
19024;SDS011;9645;51.448;6.260;2023-02-22T08:55:36;60.92;;;20.48;;
19024;SDS011;9645;51.448;6.260;2023-02-22T08:58:04;59.42;;;17.85;;
19024;SDS011;9645;51.448;6.260;2023-02-22T09:00:33;50.35;;;19.55;;
19024;SDS011;9645;51.448;6.260;2023-02-22T09:03:02;61.40;;;20.65;;
19024;SDS011;9645;51.448;6.260;2023-02-22T09:05:30;54.15;;;18.48;;
19024;SDS011;9645;51.448;6.260;2023-02-22T09:07:57;52.55;;;18.95;;
19024;SDS011;9645;51.448;6.260;2023-02-22T09:10:26;53.13;;;19.25;;
19024;SDS011;9645;51.448;6.260;2023-02-22T09:12:54;55.60;;;19.80;;
19024;SDS011;9645;51.448;6.260;2023-02-22T09:15:21;65.77;;;19.37;;
19024;SDS011;9645;51.448;6.260;2023-02-22T09:17:49;52.43;;;19.53;;
19024;SDS011;9645;51.448;6.260;2023-02-22T09:20:17;56.37;;;22.57;;
19024;SDS011;9645;51.448;6.260;2023-02-22T09:22:46;48.67;;;19.27;;
19024;SDS011;9645;51.448;6.260;2023-02-22T09:25:14;50.97;;;18.63;;
19024;SDS011;9645;51.448;6.260;2023-02-22T09:27:41;55.40;;;19.53;;
19024;SDS011;9645;51.448;6.260;2023-02-22T09:30:14;55.23;;;19.23;;
19024;SDS011;9645;51.448;6.260;2023-02-22T09:32:42;45.37;;;19.63;;
19024;SDS011;9645;51.448;6.260;2023-02-22T09:35:09;51.07;;;21.87;;
19024;SDS011;9645;51.448;6.260;2023-02-22T09:37:37;44.87;;;18.10;;
19024;SDS011;9645;51.448;6.260;2023-02-22T09:40:04;41.13;;;19.07;;
19024;SDS011;9645;51.448;6.260;2023-02-22T09:42:36;47.53;;;21.60;;
19024;SDS011;9645;51.448;6.260;2023-02-22T09:45:13;41.37;;;18.63;;
19024;SDS011;9645;51.448;6.260;2023-02-22T09:47:48;53.53;;;21.53;;
19024;SDS011;9645;51.448;6.260;2023-02-22T09:50:21;37.40;;;17.60;;
19024;SDS011;9645;51.448;6.260;2023-02-22T09:52:51;37.80;;;18.67;;
19024;SDS011;9645;51.448;6.260;2023-02-22T09:55:25;63.60;;;21.93;;
19024;SDS011;9645;51.448;6.260;2023-02-22T09:57:58;47.97;;;25.73;;
19024;SDS011;9645;51.448;6.260;2023-02-22T10:00:30;36.60;;;17.70;;
19024;SDS011;9645;51.448;6.260;2023-02-22T10:03:02;43.50;;;18.27;;
19024;SDS011;9645;51.448;6.260;2023-02-22T10:05:39;30.50;;;16.07;;
19024;SDS011;9645;51.448;6.260;2023-02-22T10:08:09;35.83;;;17.30;;
19024;SDS011;9645;51.448;6.260;2023-02-22T10:10:38;33.70;;;16.37;;
19024;SDS011;9645;51.448;6.260;2023-02-22T10:13:12;42.73;;;21.83;;
19024;SDS011;9645;51.448;6.260;2023-02-22T10:15:51;39.30;;;20.43;;
19024;SDS011;9645;51.448;6.260;2023-02-22T10:21:39;31.50;;;15.40;;
19024;SDS011;9645;51.448;6.260;2023-02-22T10:24:27;31.57;;;15.67;;
19024;SDS011;9645;51.448;6.260;2023-02-22T10:27:04;37.30;;;16.80;;
19024;SDS011;9645;51.448;6.260;2023-02-22T10:29:34;35.70;;;15.80;;
19024;SDS011;9645;51.448;6.260;2023-02-22T10:32:09;32.27;;;15.83;;
19024;SDS011;9645;51.448;6.260;2023-02-22T10:34:41;31.27;;;15.60;;
19024;SDS011;9645;51.448;6.260;2023-02-22T10:37:16;36.10;;;16.77;;
19024;SDS011;9645;51.448;6.260;2023-02-22T10:39:49;35.73;;;15.63;;
19024;SDS011;9645;51.448;6.260;2023-02-22T10:42:23;32.20;;;15.87;;
19024;SDS011;9645;51.448;6.260;2023-02-22T10:44:52;39.03;;;16.70;;
19024;SDS011;9645;51.448;6.260;2023-02-22T10:47:20;35.73;;;17.40;;
19024;SDS011;9645;51.448;6.260;2023-02-22T10:49:50;41.70;;;18.13;;
19024;SDS011;9645;51.448;6.260;2023-02-22T10:52:22;38.07;;;15.17;;
19024;SDS011;9645;51.448;6.260;2023-02-22T10:54:51;35.83;;;17.80;;
19024;SDS011;9645;51.448;6.260;2023-02-22T10:57:21;36.20;;;16.60;;
19024;SDS011;9645;51.448;6.260;2023-02-22T10:59:51;33.67;;;16.43;;
19024;SDS011;9645;51.448;6.260;2023-02-22T11:02:23;38.87;;;17.17;;
19024;SDS011;9645;51.448;6.260;2023-02-22T11:04:54;31.90;;;16.40;;
19024;SDS011;9645;51.448;6.260;2023-02-22T11:07:22;35.20;;;15.63;;
19024;SDS011;9645;51.448;6.260;2023-02-22T11:09:52;39.80;;;16.57;;
19024;SDS011;9645;51.448;6.260;2023-02-22T11:12:20;28.90;;;15.23;;
19024;SDS011;9645;51.448;6.260;2023-02-22T11:14:51;29.70;;;15.27;;
19024;SDS011;9645;51.448;6.260;2023-02-22T11:17:23;28.60;;;15.57;;
19024;SDS011;9645;51.448;6.260;2023-02-22T11:19:52;29.60;;;16.37;;
19024;SDS011;9645;51.448;6.260;2023-02-22T11:22:20;30.77;;;15.53;;
19024;SDS011;9645;51.448;6.260;2023-02-22T11:24:49;25.90;;;14.93;;
19024;SDS011;9645;51.448;6.260;2023-02-22T11:27:25;27.60;;;16.17;;
19024;SDS011;9645;51.448;6.260;2023-02-22T11:29:56;32.90;;;16.13;;
19024;SDS011;9645;51.448;6.260;2023-02-22T11:32:35;32.13;;;15.30;;
19024;SDS011;9645;51.448;6.260;2023-02-22T11:35:19;26.70;;;13.63;;
19024;SDS011;9645;51.448;6.260;2023-02-22T11:43:41;28.87;;;14.80;;
19024;SDS011;9645;51.448;6.260;2023-02-22T11:46:11;26.37;;;14.50;;
19024;SDS011;9645;51.448;6.260;2023-02-22T11:48:42;28.13;;;14.50;;
19024;SDS011;9645;51.448;6.260;2023-02-22T11:51:22;28.67;;;14.67;;
19024;SDS011;9645;51.448;6.260;2023-02-22T11:56:54;34.83;;;12.90;;
19024;SDS011;9645;51.448;6.260;2023-02-22T11:59:33;19.60;;;10.53;;
19024;SDS011;9645;51.448;6.260;2023-02-22T12:02:16;21.90;;;11.93;;
19024;SDS011;9645;51.448;6.260;2023-02-22T12:05:11;22.10;;;11.60;;
19024;SDS011;9645;51.448;6.260;2023-02-22T12:07:51;18.97;;;10.50;;
19024;SDS011;9645;51.448;6.260;2023-02-22T12:10:30;20.87;;;11.03;;
19024;SDS011;9645;51.448;6.260;2023-02-22T12:13:16;19.23;;;10.43;;
19024;SDS011;9645;51.448;6.260;2023-02-22T12:15:58;18.63;;;9.77;;
19024;SDS011;9645;51.448;6.260;2023-02-22T12:18:37;18.30;;;9.90;;
19024;SDS011;9645;51.448;6.260;2023-02-22T12:21:11;15.97;;;9.90;;
19024;SDS011;9645;51.448;6.260;2023-02-22T12:23:42;20.90;;;9.93;;
19024;SDS011;9645;51.448;6.260;2023-02-22T12:26:15;16.33;;;10.10;;
19024;SDS011;9645;51.448;6.260;2023-02-22T12:28:51;24.90;;;9.90;;
19024;SDS011;9645;51.448;6.260;2023-02-22T12:31:24;22.93;;;10.90;;
19024;SDS011;9645;51.448;6.260;2023-02-22T12:33:58;15.93;;;8.97;;
19024;SDS011;9645;51.448;6.260;2023-02-22T12:36:36;19.53;;;10.00;;
19024;SDS011;9645;51.448;6.260;2023-02-22T12:42:04;18.53;;;9.60;;
19024;SDS011;9645;51.448;6.260;2023-02-22T12:44:39;18.90;;;10.30;;
19024;SDS011;9645;51.448;6.260;2023-02-22T12:47:13;19.30;;;10.30;;
19024;SDS011;9645;51.448;6.260;2023-02-22T12:49:44;14.80;;;8.80;;
19024;SDS011;9645;51.448;6.260;2023-02-22T12:52:18;18.60;;;9.30;;
19024;SDS011;9645;51.448;6.260;2023-02-22T12:54:54;21.37;;;10.37;;
19024;SDS011;9645;51.448;6.260;2023-02-22T12:57:33;17.50;;;9.70;;
19024;SDS011;9645;51.448;6.260;2023-02-22T13:00:08;17.43;;;9.87;;
19024;SDS011;9645;51.448;6.260;2023-02-22T13:02:44;17.93;;;9.57;;
19024;SDS011;9645;51.448;6.260;2023-02-22T13:05:19;17.20;;;8.50;;
19024;SDS011;9645;51.448;6.260;2023-02-22T13:07:50;20.80;;;8.70;;
19024;SDS011;9645;51.448;6.260;2023-02-22T13:10:30;21.83;;;10.37;;
19024;SDS011;9645;51.448;6.260;2023-02-22T13:13:17;13.60;;;8.43;;
19024;SDS011;9645;51.448;6.260;2023-02-22T13:15:51;15.13;;;9.10;;
19024;SDS011;9645;51.448;6.260;2023-02-22T13:18:30;17.10;;;10.80;;
19024;SDS011;9645;51.448;6.260;2023-02-22T13:21:08;19.53;;;10.00;;
19024;SDS011;9645;51.448;6.260;2023-02-22T13:23:45;19.60;;;10.37;;
19024;SDS011;9645;51.448;6.260;2023-02-22T13:26:20;24.03;;;11.70;;
19024;SDS011;9645;51.448;6.260;2023-02-22T13:28:54;22.70;;;11.73;;
19024;SDS011;9645;51.448;6.260;2023-02-22T13:34:37;22.87;;;11.20;;
19024;SDS011;9645;51.448;6.260;2023-02-22T13:40:17;22.37;;;11.40;;
19024;SDS011;9645;51.448;6.260;2023-02-22T13:43:09;21.10;;;11.53;;
19024;SDS011;9645;51.448;6.260;2023-02-22T13:49:18;21.80;;;12.07;;
19024;SDS011;9645;51.448;6.260;2023-02-22T13:51:54;24.20;;;10.53;;
19024;SDS011;9645;51.448;6.260;2023-02-22T13:54:25;20.67;;;11.00;;
19024;SDS011;9645;51.448;6.260;2023-02-22T13:57:02;20.60;;;11.40;;
19024;SDS011;9645;51.448;6.260;2023-02-22T13:59:45;25.70;;;11.33;;
19024;SDS011;9645;51.448;6.260;2023-02-22T14:04:59;23.67;;;12.00;;
19024;SDS011;9645;51.448;6.260;2023-02-22T14:07:45;25.63;;;12.17;;
19024;SDS011;9645;51.448;6.260;2023-02-22T14:13:21;22.63;;;12.20;;
19024;SDS011;9645;51.448;6.260;2023-02-22T14:18:45;24.93;;;11.90;;
19024;SDS011;9645;51.448;6.260;2023-02-22T14:21:14;26.27;;;13.10;;
19024;SDS011;9645;51.448;6.260;2023-02-22T14:23:44;22.43;;;12.40;;
19024;SDS011;9645;51.448;6.260;2023-02-22T14:26:15;21.33;;;12.20;;
19024;SDS011;9645;51.448;6.260;2023-02-22T14:28:49;26.00;;;13.77;;
19024;SDS011;9645;51.448;6.260;2023-02-22T14:31:20;32.73;;;14.73;;
19024;SDS011;9645;51.448;6.260;2023-02-22T14:34:02;26.83;;;13.20;;
19024;SDS011;9645;51.448;6.260;2023-02-22T14:36:32;27.63;;;13.20;;
19024;SDS011;9645;51.448;6.260;2023-02-22T14:39:10;24.53;;;12.50;;
19024;SDS011;9645;51.448;6.260;2023-02-22T14:41:40;23.50;;;12.70;;
19024;SDS011;9645;51.448;6.260;2023-02-22T14:44:13;27.77;;;13.43;;
19024;SDS011;9645;51.448;6.260;2023-02-22T14:46:46;23.80;;;12.90;;
19024;SDS011;9645;51.448;6.260;2023-02-22T14:49:14;27.87;;;14.00;;
19024;SDS011;9645;51.448;6.260;2023-02-22T14:51:48;31.30;;;13.50;;
19024;SDS011;9645;51.448;6.260;2023-02-22T14:54:22;27.93;;;14.83;;
19024;SDS011;9645;51.448;6.260;2023-02-22T14:56:56;32.83;;;14.90;;
19024;SDS011;9645;51.448;6.260;2023-02-22T14:59:45;28.00;;;14.40;;
19024;SDS011;9645;51.448;6.260;2023-02-22T15:02:18;24.90;;;13.30;;
19024;SDS011;9645;51.448;6.260;2023-02-22T15:04:50;26.07;;;12.87;;
19024;SDS011;9645;51.448;6.260;2023-02-22T15:07:22;30.03;;;13.60;;
19024;SDS011;9645;51.448;6.260;2023-02-22T15:10:03;30.87;;;15.30;;
19024;SDS011;9645;51.448;6.260;2023-02-22T15:12:32;29.83;;;15.43;;
19024;SDS011;9645;51.448;6.260;2023-02-22T15:15:11;27.00;;;14.20;;
19024;SDS011;9645;51.448;6.260;2023-02-22T15:17:45;25.17;;;13.87;;
19024;SDS011;9645;51.448;6.260;2023-02-22T15:20:14;27.90;;;14.37;;
19024;SDS011;9645;51.448;6.260;2023-02-22T15:22:45;31.00;;;14.77;;
19024;SDS011;9645;51.448;6.260;2023-02-22T15:25:15;31.63;;;14.50;;
19024;SDS011;9645;51.448;6.260;2023-02-22T15:27:49;26.80;;;13.13;;
19024;SDS011;9645;51.448;6.260;2023-02-22T15:30:19;24.23;;;13.00;;
19024;SDS011;9645;51.448;6.260;2023-02-22T15:32:50;29.10;;;13.93;;
19024;SDS011;9645;51.448;6.260;2023-02-22T15:35:19;29.50;;;14.27;;
19024;SDS011;9645;51.448;6.260;2023-02-22T15:37:57;32.50;;;16.23;;
19024;SDS011;9645;51.448;6.260;2023-02-22T15:40:25;29.40;;;15.40;;
19024;SDS011;9645;51.448;6.260;2023-02-22T15:42:59;29.83;;;14.50;;